createdAt,value
2019-05-29T00:01:19.787Z,1.92
2019-05-29T00:03:45.552Z,3.47
2019-05-29T00:06:14.379Z,2.47
2019-05-29T00:08:42.688Z,2.45
2019-05-29T00:11:12.166Z,2.27
2019-05-29T00:13:40.932Z,2.30
2019-05-29T00:16:10.277Z,1.90
2019-05-29T00:18:38.634Z,2.00
2019-05-29T00:21:06.915Z,1.90
2019-05-29T00:23:35.198Z,2.00
2019-05-29T00:26:03.478Z,1.95
2019-05-29T00:28:31.740Z,2.13
2019-05-29T00:31:00.014Z,2.20
2019-05-29T00:33:28.299Z,2.47
2019-05-29T00:35:56.579Z,2.10
2019-05-29T00:38:24.833Z,2.30
2019-05-29T00:40:53.121Z,2.62
2019-05-29T00:43:21.535Z,2.50
2019-05-29T00:45:49.816Z,2.03
2019-05-29T00:48:18.150Z,2.67
2019-05-29T00:50:46.426Z,2.90
2019-05-29T00:53:14.697Z,2.30
2019-05-29T00:55:42.971Z,3.00
2019-05-29T00:58:11.264Z,2.00
2019-05-29T01:00:39.557Z,2.20
2019-05-29T01:03:07.852Z,2.53
2019-05-29T01:05:36.143Z,2.00
2019-05-29T01:08:04.401Z,2.60
2019-05-29T01:10:32.676Z,2.27
2019-05-29T01:13:00.952Z,2.45
2019-05-29T01:15:29.244Z,2.83
2019-05-29T01:17:57.527Z,2.43
2019-05-29T01:20:25.805Z,1.90
2019-05-29T01:22:54.080Z,1.97
2019-05-29T01:25:22.716Z,2.63
2019-05-29T01:27:51.007Z,2.63
2019-05-29T01:30:19.466Z,2.60
2019-05-29T01:32:47.695Z,2.47
2019-05-29T01:35:16.044Z,2.40
2019-05-29T01:37:44.317Z,2.43
2019-05-29T01:40:21.068Z,2.52
2019-05-29T01:42:42.674Z,3.40
2019-05-29T01:45:11.132Z,2.87
2019-05-29T01:47:39.397Z,3.70
2019-05-29T01:50:08.419Z,2.80
2019-05-29T01:52:36.716Z,3.05
2019-05-29T01:55:07.722Z,2.77
2019-05-29T01:57:36.011Z,3.27
2019-05-29T02:00:08.975Z,3.10
2019-05-29T02:02:37.238Z,2.77
2019-05-29T02:05:08.522Z,2.77
2019-05-29T02:07:36.786Z,3.40
2019-05-29T02:10:08.434Z,2.40
2019-05-29T02:12:36.721Z,2.80
2019-05-29T02:15:22.689Z,2.20
2019-05-29T02:17:37.112Z,2.67
2019-05-29T02:20:07.628Z,2.20
2019-05-29T02:22:35.917Z,2.40
2019-05-29T02:25:07.202Z,2.08
2019-05-29T02:27:35.476Z,2.10
2019-05-29T02:30:05.388Z,2.57
2019-05-29T02:32:33.668Z,2.40
2019-05-29T02:35:01.943Z,2.60
2019-05-29T02:37:30.224Z,2.50
2019-05-29T02:39:58.494Z,2.60
2019-05-29T02:42:27.133Z,2.03
2019-05-29T02:44:55.430Z,2.20
2019-05-29T02:47:23.727Z,2.47
2019-05-29T02:49:51.985Z,2.57
2019-05-29T02:52:21.853Z,2.40
2019-05-29T02:54:50.222Z,2.20
2019-05-29T02:57:18.479Z,2.23
2019-05-29T02:59:46.790Z,3.15
2019-05-29T03:02:15.079Z,2.30
2019-05-29T03:04:43.344Z,3.53
2019-05-29T03:07:11.636Z,2.83
2019-05-29T03:09:39.908Z,2.20
2019-05-29T03:12:08.189Z,2.93
2019-05-29T03:14:36.455Z,2.80
2019-05-29T03:17:04.817Z,2.90
2019-05-29T03:19:34.740Z,2.40
2019-05-29T03:22:03.232Z,2.92
2019-05-29T03:24:32.950Z,3.37
2019-05-29T03:27:01.644Z,2.80
2019-05-29T03:29:30.134Z,2.90
2019-05-29T03:31:58.732Z,3.15
2019-05-29T03:34:31.051Z,2.87
2019-05-29T03:36:56.991Z,2.87
2019-05-29T03:39:26.317Z,2.50
2019-05-29T03:41:54.721Z,2.77
2019-05-29T03:44:23.012Z,2.93
2019-05-29T03:46:51.279Z,2.60
2019-05-29T03:49:19.548Z,2.90
2019-05-29T03:51:47.816Z,3.50
2019-05-29T03:54:16.085Z,2.23
2019-05-29T03:56:44.374Z,2.43
2019-05-29T03:59:12.634Z,2.73
2019-05-29T04:01:40.915Z,2.80
2019-05-29T04:04:09.199Z,2.67
2019-05-29T04:06:37.690Z,2.90
2019-05-29T04:09:06.597Z,2.75
2019-05-29T04:11:37.660Z,2.50
2019-05-29T04:14:06.191Z,2.40
2019-05-29T04:16:54.023Z,2.77
2019-05-29T04:19:04.515Z,3.77
2019-05-29T04:21:34.198Z,2.37
2019-05-29T04:24:07.183Z,2.73
2019-05-29T04:26:38.638Z,2.47
2019-05-29T04:29:06.910Z,2.80
2019-05-29T04:31:36.520Z,2.60
2019-05-29T04:34:05.286Z,2.40
2019-05-29T04:36:34.855Z,2.77
2019-05-29T04:39:04.461Z,2.73
2019-05-29T04:41:32.856Z,2.50
2019-05-29T04:44:01.071Z,3.02
2019-05-29T04:46:30.020Z,2.50
2019-05-29T04:48:58.698Z,2.03
2019-05-29T04:51:26.958Z,3.50
2019-05-29T04:53:55.251Z,3.47
2019-05-29T04:56:23.522Z,3.17
2019-05-29T04:58:51.828Z,2.55
2019-05-29T05:01:20.113Z,2.55
2019-05-29T05:03:48.400Z,3.10
2019-05-29T05:06:16.676Z,2.45
2019-05-29T05:08:44.951Z,2.55
2019-05-29T05:11:13.338Z,2.05
2019-05-29T05:13:42.297Z,2.70
2019-05-29T05:16:10.575Z,2.45
2019-05-29T05:18:40.053Z,1.80
2019-05-29T05:21:08.480Z,1.87
2019-05-29T05:23:36.741Z,2.20
2019-05-29T05:26:05.201Z,2.20
2019-05-29T05:28:34.330Z,2.60
2019-05-29T05:31:02.613Z,1.53
2019-05-29T05:33:30.877Z,2.10
2019-05-29T05:35:59.153Z,1.93
2019-05-29T05:38:27.418Z,2.20
2019-05-29T05:40:55.751Z,1.70
2019-05-29T05:43:24.702Z,2.40
2019-05-29T05:45:53.073Z,1.55
2019-05-29T05:48:21.359Z,1.80
2019-05-29T05:50:49.629Z,1.57
2019-05-29T05:53:17.913Z,2.37
2019-05-29T05:55:46.182Z,1.60
2019-05-29T05:58:14.465Z,1.40
2019-05-29T06:00:42.744Z,1.90
2019-05-29T06:03:11.026Z,1.20
2019-05-29T06:05:40.238Z,1.40
2019-05-29T06:08:08.553Z,1.80
2019-05-29T06:10:36.826Z,1.83
2019-05-29T06:13:05.366Z,2.13
2019-05-29T06:15:34.325Z,1.25
2019-05-29T06:18:19.786Z,1.00
2019-05-29T06:20:32.715Z,1.90
2019-05-29T06:23:00.952Z,1.40
2019-05-29T06:25:29.312Z,1.40
2019-05-29T06:27:57.590Z,1.50
2019-05-29T06:30:25.862Z,1.50
2019-05-29T06:32:54.154Z,1.60
2019-05-29T06:35:22.446Z,1.80
2019-05-29T06:37:50.714Z,1.45
2019-05-29T06:40:31.134Z,1.40
2019-05-29T06:42:59.406Z,1.37
2019-05-29T06:45:33.739Z,1.98
2019-05-29T06:48:05.034Z,1.23
2019-05-29T06:50:33.309Z,1.17
2019-05-29T06:53:01.591Z,1.22
2019-05-29T06:55:29.865Z,1.35
2019-05-29T06:57:58.135Z,1.67
2019-05-29T07:00:35.301Z,1.10
2019-05-29T07:02:56.402Z,1.20
2019-05-29T07:05:24.676Z,1.23
2019-05-29T07:07:52.942Z,1.80
2019-05-29T07:10:21.223Z,1.47
2019-05-29T07:12:49.497Z,1.73
2019-05-29T07:15:17.832Z,1.57
2019-05-29T07:17:46.702Z,1.20
2019-05-29T07:20:15.531Z,1.43
2019-05-29T07:22:45.061Z,1.20
2019-05-29T07:25:13.364Z,1.27
2019-05-29T07:27:42.821Z,1.30
2019-05-29T07:30:11.282Z,1.30
2019-05-29T07:32:40.924Z,1.00
2019-05-29T07:35:09.657Z,1.37
2019-05-29T07:37:37.935Z,1.20
2019-05-29T07:40:07.068Z,1.30
2019-05-29T07:42:35.361Z,1.47
2019-05-29T07:45:04.121Z,1.13
2019-05-29T07:47:32.392Z,1.60
2019-05-29T07:50:00.666Z,1.10
2019-05-29T07:52:29.224Z,1.10
2019-05-29T07:54:57.503Z,1.20
2019-05-29T07:57:25.839Z,1.17
2019-05-29T07:59:54.101Z,1.30
2019-05-29T08:02:22.394Z,1.10
2019-05-29T08:04:50.689Z,1.30
2019-05-29T08:07:18.962Z,1.13
2019-05-29T08:09:47.824Z,1.10
2019-05-29T08:12:16.827Z,1.15
2019-05-29T08:14:45.810Z,1.30
2019-05-29T08:17:14.194Z,1.40
2019-05-29T08:20:01.412Z,1.60
2019-05-29T08:22:12.483Z,1.40
2019-05-29T08:24:42.472Z,1.40
2019-05-29T08:27:10.914Z,1.37
2019-05-29T08:29:40.517Z,1.00
2019-05-29T08:32:08.824Z,1.32
2019-05-29T08:34:37.114Z,1.20
2019-05-29T08:37:07.455Z,1.20
2019-05-29T08:39:36.975Z,1.23
2019-05-29T08:42:22.002Z,1.20
2019-05-29T08:44:35.529Z,1.90
2019-05-29T08:47:10.173Z,1.00
2019-05-29T08:49:33.836Z,1.55
2019-05-29T08:52:11.552Z,5.07
2019-05-29T08:54:32.124Z,2.37
2019-05-29T08:57:00.425Z,1.10
2019-05-29T08:59:28.686Z,1.30
2019-05-29T09:01:56.957Z,1.30
2019-05-29T09:04:25.226Z,1.17
2019-05-29T09:06:53.670Z,2.43
2019-05-29T09:09:21.954Z,1.42
2019-05-29T09:11:53.759Z,1.30
2019-05-29T09:14:20.913Z,1.07
2019-05-29T09:16:49.294Z,2.10
2019-05-29T09:19:18.878Z,1.60
2019-05-29T09:21:47.598Z,1.62
2019-05-29T09:24:17.394Z,1.07
2019-05-29T09:26:46.658Z,0.90
2019-05-29T09:29:18.194Z,1.80
2019-05-29T09:31:44.988Z,1.30
2019-05-29T09:34:13.708Z,1.50
2019-05-29T09:36:43.328Z,1.40
2019-05-29T09:39:11.603Z,1.30
2019-05-29T09:41:39.902Z,1.82
2019-05-29T09:44:08.171Z,1.80
2019-05-29T09:46:37.402Z,1.47
2019-05-29T09:49:05.733Z,1.72
2019-05-29T09:51:34.008Z,1.57
2019-05-29T09:54:03.446Z,2.05
2019-05-29T09:56:31.848Z,1.50
2019-05-29T09:59:01.644Z,1.67
2019-05-29T10:01:30.145Z,1.63
2019-05-29T10:04:00.636Z,1.60
2019-05-29T10:06:28.435Z,1.43
2019-05-29T10:08:57.871Z,1.40
2019-05-29T10:11:26.269Z,1.10
2019-05-29T10:13:55.584Z,1.77
2019-05-29T10:16:24.657Z,1.40
2019-05-29T10:18:52.929Z,1.20
2019-05-29T10:21:38.158Z,1.22
2019-05-29T10:23:51.207Z,2.30
2019-05-29T10:26:19.473Z,1.52
2019-05-29T10:29:02.272Z,1.40
2019-05-29T10:31:17.756Z,1.30
2019-05-29T10:33:46.182Z,1.85
2019-05-29T10:36:14.487Z,3.13
2019-05-29T10:38:42.775Z,1.60
2019-05-29T10:41:11.064Z,2.00
2019-05-29T10:43:39.346Z,1.47
2019-05-29T10:46:07.627Z,1.82
2019-05-29T10:48:35.921Z,1.63
2019-05-29T10:51:04.172Z,1.57
2019-05-29T10:53:32.459Z,1.40
2019-05-29T10:56:00.766Z,1.30
2019-05-29T10:58:29.027Z,1.80
2019-05-29T11:00:57.304Z,1.85
2019-05-29T11:03:25.571Z,2.02
2019-05-29T11:05:53.874Z,1.70
2019-05-29T11:08:22.118Z,2.03
2019-05-29T11:10:50.396Z,1.70
2019-05-29T11:13:18.660Z,2.00
2019-05-29T11:15:46.928Z,2.07
2019-05-29T11:18:15.205Z,2.00
2019-05-29T11:20:43.485Z,1.62
2019-05-29T11:23:11.756Z,1.60
2019-05-29T11:25:40.037Z,1.57
2019-05-29T11:28:08.332Z,1.63
2019-05-29T11:30:36.605Z,1.30
2019-05-29T11:33:05.025Z,1.57
2019-05-29T11:35:33.310Z,1.65
2019-05-29T11:38:02.857Z,2.50
2019-05-29T11:40:31.509Z,1.92
2019-05-29T11:42:59.877Z,1.98
2019-05-29T11:45:28.152Z,1.70
2019-05-29T11:47:58.497Z,1.80
2019-05-29T11:50:26.498Z,1.80
2019-05-29T11:52:54.774Z,1.40
2019-05-29T11:55:23.043Z,1.67
2019-05-29T11:57:51.826Z,1.90
2019-05-29T12:00:21.294Z,1.57
2019-05-29T12:02:51.463Z,1.45
2019-05-29T12:05:20.080Z,1.80
2019-05-29T12:07:48.381Z,2.30
2019-05-29T12:10:16.975Z,1.50
2019-05-29T12:12:45.274Z,1.53
2019-05-29T12:15:16.328Z,2.00
2019-05-29T12:17:43.983Z,2.00
2019-05-29T12:20:26.925Z,1.60
2019-05-29T12:23:07.065Z,1.27
2019-05-29T12:25:12.511Z,1.70
2019-05-29T12:27:40.791Z,1.60
2019-05-29T12:30:11.085Z,1.57
2019-05-29T12:32:39.360Z,1.50
2019-05-29T12:35:08.099Z,1.60
2019-05-29T12:37:36.361Z,1.40
2019-05-29T12:40:08.917Z,1.50
2019-05-29T12:42:37.350Z,1.93
2019-05-29T12:45:09.768Z,2.03
2019-05-29T12:47:38.062Z,2.10
2019-05-29T12:50:08.979Z,1.70
2019-05-29T12:52:37.355Z,2.10
2019-05-29T12:55:07.455Z,1.77
2019-05-29T12:57:35.747Z,2.37
2019-05-29T13:00:09.495Z,1.55
2019-05-29T13:02:37.767Z,1.80
2019-05-29T13:05:16.260Z,1.52
2019-05-29T13:07:36.812Z,1.67
2019-05-29T13:10:08.774Z,2.00
2019-05-29T13:12:37.114Z,1.50
2019-05-29T13:15:12.866Z,1.80
2019-05-29T13:17:41.147Z,1.40
2019-05-29T13:20:20.965Z,1.87
2019-05-29T13:22:40.051Z,1.90
2019-05-29T13:25:12.253Z,1.50
2019-05-29T13:27:40.274Z,1.57
2019-05-29T13:30:10.239Z,1.10
2019-05-29T13:32:38.526Z,1.40
2019-05-29T13:35:07.249Z,1.30
2019-05-29T13:37:35.513Z,1.67
2019-05-29T13:40:08.573Z,1.50
2019-05-29T13:42:37.001Z,1.10
2019-05-29T13:45:16.587Z,1.07
2019-05-29T13:47:36.621Z,1.10
2019-05-29T13:50:11.935Z,0.90
2019-05-29T13:52:38.310Z,0.70
2019-05-29T13:55:08.184Z,1.03
2019-05-29T13:57:39.546Z,1.20
2019-05-29T14:00:31.645Z,1.00
2019-05-29T14:02:40.098Z,0.80
2019-05-29T14:05:09.501Z,0.68
2019-05-29T14:07:37.780Z,0.90
2019-05-29T14:10:07.771Z,0.80
2019-05-29T14:12:39.480Z,0.67
2019-05-29T14:15:10.092Z,0.90
2019-05-29T14:17:38.359Z,1.20
2019-05-29T14:20:08.968Z,1.30
2019-05-29T14:22:37.228Z,0.85
2019-05-29T14:25:07.483Z,1.10
2019-05-29T14:27:35.810Z,0.73
2019-05-29T14:30:08.423Z,0.80
2019-05-29T14:32:36.646Z,0.70
2019-05-29T14:35:10.447Z,0.70
2019-05-29T14:37:38.199Z,0.70
2019-05-29T14:40:07.909Z,0.70
2019-05-29T14:42:36.354Z,0.93
2019-05-29T14:45:08.215Z,0.70
2019-05-29T14:47:36.558Z,0.70
2019-05-29T14:50:08.909Z,0.90
2019-05-29T14:52:37.337Z,0.90
2019-05-29T14:55:06.740Z,0.75
2019-05-29T14:57:35.185Z,0.90
2019-05-29T15:00:22.244Z,0.83
2019-05-29T15:02:38.766Z,1.10
2019-05-29T15:05:07.888Z,1.00
2019-05-29T15:07:36.136Z,0.95
2019-05-29T15:10:12.886Z,0.93
2019-05-29T15:12:38.277Z,1.10
2019-05-29T15:15:08.838Z,1.20
2019-05-29T15:17:37.587Z,0.90
2019-05-29T15:20:09.863Z,1.27
2019-05-29T15:22:38.685Z,0.80
2019-05-29T15:25:15.565Z,1.00
2019-05-29T15:27:38.201Z,1.30
2019-05-29T15:30:08.761Z,1.20
2019-05-29T15:32:37.473Z,1.30
2019-05-29T15:35:11.026Z,1.55
2019-05-29T15:37:37.293Z,1.10
2019-05-29T15:40:08.848Z,1.10
2019-05-29T15:42:37.210Z,0.93
2019-05-29T15:45:07.628Z,0.83
2019-05-29T15:47:35.967Z,1.10
2019-05-29T15:50:11.104Z,1.10
2019-05-29T15:52:39.771Z,1.10
2019-05-29T15:55:27.435Z,0.80
2019-05-29T15:57:39.831Z,1.37
2019-05-29T16:00:13.585Z,0.90
2019-05-29T16:02:42.038Z,1.13
2019-05-29T16:05:11.244Z,0.90
2019-05-29T16:07:39.633Z,1.33
2019-05-29T16:12:50.172Z,1.47
2019-05-29T16:15:19.462Z,1.30
2019-05-29T16:17:48.664Z,1.70
2019-05-29T16:20:18.599Z,1.10
2019-05-29T16:22:47.289Z,1.30
2019-05-29T16:25:55.607Z,1.20
2019-05-29T16:28:23.891Z,1.60
2019-05-29T16:30:52.226Z,1.00
2019-05-29T16:33:20.461Z,1.00
2019-05-29T16:35:48.753Z,0.90
2019-05-29T16:38:17.629Z,1.40
2019-05-29T16:43:26.075Z,1.60
2019-05-29T16:45:54.347Z,0.97
2019-05-29T16:48:22.937Z,0.93
2019-05-29T16:50:52.622Z,1.20
2019-05-29T16:53:21.077Z,0.77
2019-05-29T16:55:53.753Z,0.77
2019-05-29T16:58:19.851Z,0.80
2019-05-29T17:00:49.335Z,0.90
2019-05-29T17:03:17.748Z,1.03
2019-05-29T17:05:45.969Z,0.90
2019-05-29T17:08:14.238Z,1.23
2019-05-29T17:10:42.517Z,0.77
2019-05-29T17:13:10.790Z,0.80
2019-05-29T17:15:39.072Z,0.97
2019-05-29T17:18:07.353Z,0.90
2019-05-29T17:20:54.976Z,1.07
2019-05-29T17:23:23.271Z,1.40
2019-05-29T17:25:51.555Z,0.60
2019-05-29T17:28:23.228Z,1.03
2019-05-29T17:30:49.800Z,0.70
2019-05-29T17:33:58.113Z,0.87
2019-05-29T17:36:28.697Z,1.00
2019-05-29T17:38:56.528Z,1.00
2019-05-29T17:41:26.387Z,0.90
2019-05-29T17:43:54.771Z,1.95
2019-05-29T17:46:23.785Z,0.97
2019-05-29T17:48:53.035Z,0.70
2019-05-29T17:51:21.904Z,0.77
2019-05-29T17:56:36.609Z,0.80
2019-05-29T17:59:00.359Z,0.70
2019-05-29T18:01:30.849Z,0.90
2019-05-29T18:03:58.631Z,1.30
2019-05-29T18:06:26.930Z,0.60
2019-05-29T18:08:55.241Z,0.90
2019-05-29T18:11:23.510Z,0.70
2019-05-29T18:13:51.782Z,1.95
2019-05-29T18:16:21.385Z,0.70
2019-05-29T18:18:50.156Z,1.00
2019-05-29T18:21:19.569Z,0.87
2019-05-29T18:23:48.432Z,1.58
2019-05-29T18:26:17.887Z,0.90
2019-05-29T18:28:46.952Z,0.90
2019-05-29T18:31:15.221Z,0.80
2019-05-29T18:33:43.504Z,1.60
2019-05-29T18:36:11.767Z,0.77
2019-05-29T18:38:40.042Z,0.90
2019-05-29T18:41:08.324Z,0.90
2019-05-29T18:43:36.658Z,0.65
2019-05-29T18:46:05.009Z,1.15
2019-05-29T18:48:33.273Z,0.90
2019-05-29T18:51:01.544Z,1.10
2019-05-29T18:53:29.824Z,1.27
2019-05-29T18:55:58.099Z,1.20
2019-05-29T18:58:26.373Z,0.80
2019-05-29T19:00:54.813Z,0.80
2019-05-29T19:03:23.501Z,0.83
2019-05-29T19:05:53.116Z,0.80
2019-05-29T19:08:21.681Z,0.93
2019-05-29T19:10:51.396Z,1.05
2019-05-29T19:13:19.670Z,0.77
2019-05-29T19:15:48.013Z,0.70
2019-05-29T19:18:16.352Z,0.70
2019-05-29T19:20:44.576Z,0.90
2019-05-29T19:23:12.851Z,0.70
2019-05-29T19:25:41.203Z,0.88
2019-05-29T19:28:09.470Z,0.70
2019-05-29T19:30:37.759Z,0.80
2019-05-29T19:33:06.048Z,1.63
2019-05-29T19:35:34.326Z,1.80
2019-05-29T19:38:02.750Z,1.20
2019-05-29T19:40:32.293Z,1.17
2019-05-29T19:43:01.095Z,1.10
2019-05-29T19:45:30.527Z,1.10
2019-05-29T19:47:59.380Z,1.20
2019-05-29T19:50:28.552Z,1.17
2019-05-29T19:52:57.664Z,1.13
2019-05-29T19:55:30.219Z,1.40
2019-05-29T19:57:56.692Z,1.30
2019-05-29T20:00:26.105Z,0.90
2019-05-29T20:02:54.298Z,1.20
2019-05-29T20:05:22.592Z,1.20
2019-05-29T20:07:50.866Z,0.90
2019-05-29T20:10:19.141Z,0.80
2019-05-29T20:13:06.757Z,1.17
2019-05-29T20:15:36.074Z,1.20
2019-05-29T20:18:05.208Z,1.67
2019-05-29T20:20:34.516Z,1.40
2019-05-29T20:23:02.812Z,1.50
2019-05-29T20:25:31.096Z,1.10
2019-05-29T20:28:06.336Z,2.07
2019-05-29T20:33:08.413Z,1.05
2019-05-29T20:35:36.939Z,1.10
2019-05-29T20:38:06.664Z,1.20
2019-05-29T20:40:35.207Z,1.33
2019-05-29T20:43:03.471Z,1.50
2019-05-29T20:45:31.751Z,1.30
2019-05-29T20:48:00.060Z,1.25
2019-05-29T20:50:28.350Z,1.20
2019-05-29T20:52:56.611Z,1.23
2019-05-29T20:55:24.873Z,1.40
2019-05-29T20:57:53.150Z,1.20
2019-05-29T21:00:21.658Z,1.33
2019-05-29T21:02:49.944Z,1.22
2019-05-29T21:05:18.342Z,1.47
2019-05-29T21:07:46.602Z,1.70
2019-05-29T21:10:14.939Z,1.17
2019-05-29T21:12:47.300Z,1.60
2019-05-29T21:15:13.248Z,1.30
2019-05-29T21:17:42.105Z,1.42
2019-05-29T21:23:13.262Z,1.33
2019-05-29T21:25:42.824Z,1.47
2019-05-29T21:28:11.567Z,1.90
2019-05-29T21:30:39.821Z,1.50
2019-05-29T21:33:08.112Z,1.60
2019-05-29T21:35:36.380Z,1.52
2019-05-29T21:38:04.711Z,1.50
2019-05-29T21:40:32.991Z,1.50
2019-05-29T21:43:01.255Z,1.57
2019-05-29T21:45:29.545Z,1.10
2019-05-29T21:47:57.809Z,1.30
2019-05-29T21:50:26.065Z,1.60
2019-05-29T21:52:54.336Z,1.67
2019-05-29T21:55:22.594Z,1.90
2019-05-29T21:57:50.869Z,1.30
2019-05-29T22:00:59.180Z,1.10
2019-05-29T22:03:27.608Z,1.27
2019-05-29T22:05:55.906Z,1.40
2019-05-29T22:08:24.174Z,1.20
2019-05-29T22:10:53.420Z,1.55
2019-05-29T22:13:22.596Z,1.27
2019-05-29T22:15:50.867Z,1.33
2019-05-29T22:18:19.147Z,1.20
2019-05-29T22:20:47.427Z,1.73
2019-05-29T22:23:15.685Z,0.93
2019-05-29T22:25:43.960Z,1.40
2019-05-29T22:28:12.234Z,1.57
2019-05-29T22:30:40.505Z,1.10
2019-05-29T22:33:08.775Z,1.22
2019-05-29T22:35:37.045Z,0.90
2019-05-29T22:38:05.323Z,1.30
2019-05-29T22:40:33.591Z,1.33
2019-05-29T22:43:02.558Z,1.40
2019-05-29T22:45:30.831Z,1.50
2019-05-29T22:48:18.460Z,1.55
2019-05-29T22:50:46.749Z,1.60
2019-05-29T22:53:15.013Z,1.47
2019-05-29T22:55:43.282Z,1.63
2019-05-29T22:58:11.561Z,1.60
2019-05-29T23:00:39.828Z,1.73
2019-05-29T23:03:08.103Z,1.87
2019-05-29T23:05:36.365Z,1.75
2019-05-29T23:08:04.721Z,2.13
2019-05-29T23:10:32.979Z,2.03
2019-05-29T23:13:05.451Z,2.00
2019-05-29T23:15:31.251Z,2.07
2019-05-29T23:18:00.685Z,2.03
2019-05-29T23:20:42.766Z,1.67
2019-05-29T23:23:11.023Z,2.40
2019-05-29T23:25:39.304Z,2.20
2019-05-29T23:28:07.578Z,2.27
2019-05-29T23:30:35.862Z,2.17
2019-05-29T23:33:04.158Z,2.50
2019-05-29T23:35:32.435Z,1.80
2019-05-29T23:38:01.315Z,2.20
2019-05-29T23:40:30.763Z,2.13
2019-05-29T23:42:59.432Z,2.33
2019-05-29T23:45:28.975Z,2.27
2019-05-29T23:47:57.662Z,2.10
2019-05-29T23:50:27.252Z,2.40
2019-05-29T23:53:29.606Z,2.50
2019-05-29T23:55:57.891Z,2.40
2019-05-29T23:58:26.168Z,1.97
